PATL/TLJ METAR and TAF weather

Enter ICAO airport designator
Station Type Date Time Source
PATL METAR 2022/06/26 08:49 UTC NOAA

PATL 260849Z AUTO 00000KT 3SM HZ SCT170 BKN200 17/06 A3018 RMK AO2 SLP215 TSNO $


Station Type Date Time Source
PATL Decoded METAR 2022/06/26 08:49 UTC NOAA

Takotna, Tatalina LRRS Airport, AK, United States (PATL) 62-54N 155-59W
Jun 26, 2022 - 04:49 AM EDT / 2022.06.26 0849 UTC
Wind: Calm:0
Visibility: 3 mile(s):0
Sky conditions: mostly cloudy
Weather: haze
Temperature: 62 F (17 C)
Dew Point: 42 F (6 C)
Relative Humidity: 48%
Pressure (altimeter): 30.18 in. Hg (1022 hPa)
ob: PATL 260849Z AUTO 00000KT 3SM HZ SCT170 BKN200 17/06 A3018 RMK AO2 SLP215 TSNO
cycle: 9

Station Type Date Time Source
PATL TAF 2012/01/12 14:06 UTC NOAA

TAF PATL 1214/1320 VRB06KT 9999 FEW050 SCT110 QNH2998INS TM26/1300Z TM32/1315Z

Example: see airport list